sensor_id;sensor_type;location;lat;lon;timestamp;temperature;humidity
13665;DHT22;6905;50.770;6.730;2022-12-07T00:02:58;4.80;99.90
13665;DHT22;6905;50.770;6.730;2022-12-07T00:05:53;4.90;99.90
13665;DHT22;6905;50.770;6.730;2022-12-07T00:08:45;4.80;99.90
13665;DHT22;6905;50.770;6.730;2022-12-07T00:12:02;4.80;99.90
13665;DHT22;6905;50.770;6.730;2022-12-07T01:52:43;4.80;99.90
13665;DHT22;6905;50.770;6.730;2022-12-07T01:55:31;4.80;99.90
13665;DHT22;6905;50.770;6.730;2022-12-07T01:58:21;4.80;99.90
13665;DHT22;6905;50.770;6.730;2022-12-07T02:04:11;4.90;99.90
13665;DHT22;6905;50.770;6.730;2022-12-07T02:07:13;4.90;99.90
13665;DHT22;6905;50.770;6.730;2022-12-07T02:10:27;4.90;99.90
13665;DHT22;6905;50.770;6.730;2022-12-07T02:13:14;4.90;99.90
13665;DHT22;6905;50.770;6.730;2022-12-07T02:16:00;4.90;99.90
13665;DHT22;6905;50.770;6.730;2022-12-07T02:18:54;4.90;99.90
13665;DHT22;6905;50.770;6.730;2022-12-07T02:21:43;4.90;99.90
13665;DHT22;6905;50.770;6.730;2022-12-07T02:24:36;4.90;99.90
13665;DHT22;6905;50.770;6.730;2022-12-07T03:45:56;4.90;99.90
13665;DHT22;6905;50.770;6.730;2022-12-07T03:48:47;5.00;99.90
13665;DHT22;6905;50.770;6.730;2022-12-07T03:51:36;5.00;99.90
13665;DHT22;6905;50.770;6.730;2022-12-07T03:54:55;5.00;99.90
13665;DHT22;6905;50.770;6.730;2022-12-07T03:57:56;5.00;99.90
13665;DHT22;6905;50.770;6.730;2022-12-07T04:01:12;5.00;99.90
13665;DHT22;6905;50.770;6.730;2022-12-07T04:07:14;5.00;99.90
13665;DHT22;6905;50.770;6.730;2022-12-07T04:09:59;4.90;99.90
13665;DHT22;6905;50.770;6.730;2022-12-07T04:12:51;4.90;99.90
13665;DHT22;6905;50.770;6.730;2022-12-07T04:19:08;4.90;99.90
13665;DHT22;6905;50.770;6.730;2022-12-07T04:22:18;4.90;99.90
13665;DHT22;6905;50.770;6.730;2022-12-07T04:25:16;4.90;99.90
13665;DHT22;6905;50.770;6.730;2022-12-07T04:28:08;4.90;99.90
13665;DHT22;6905;50.770;6.730;2022-12-07T04:30:56;4.90;99.90
13665;DHT22;6905;50.770;6.730;2022-12-07T04:33:55;4.90;99.90
13665;DHT22;6905;50.770;6.730;2022-12-07T05:03:34;4.80;99.90
13665;DHT22;6905;50.770;6.730;2022-12-07T05:06:22;4.80;99.90
13665;DHT22;6905;50.770;6.730;2022-12-07T05:09:15;4.80;99.90
13665;DHT22;6905;50.770;6.730;2022-12-07T05:12:03;4.80;99.90
13665;DHT22;6905;50.770;6.730;2022-12-07T05:14:48;4.70;99.90
13665;DHT22;6905;50.770;6.730;2022-12-07T05:17:57;4.70;99.90
13665;DHT22;6905;50.770;6.730;2022-12-07T05:21:02;4.70;99.90
13665;DHT22;6905;50.770;6.730;2022-12-07T05:23:58;4.70;99.90
13665;DHT22;6905;50.770;6.730;2022-12-07T05:27:00;4.70;99.90
13665;DHT22;6905;50.770;6.730;2022-12-07T05:33:16;4.60;99.90
13665;DHT22;6905;50.770;6.730;2022-12-07T05:53:59;4.50;99.90
13665;DHT22;6905;50.770;6.730;2022-12-07T05:56:55;4.50;99.90
13665;DHT22;6905;50.770;6.730;2022-12-07T05:59:42;4.50;99.90
13665;DHT22;6905;50.770;6.730;2022-12-07T06:05:30;4.50;99.90
13665;DHT22;6905;50.770;6.730;2022-12-07T06:08:46;4.50;99.90
13665;DHT22;6905;50.770;6.730;2022-12-07T10:21:12;7.80;99.90
13665;DHT22;6905;50.770;6.730;2022-12-07T10:24:24;7.70;99.90
13665;DHT22;6905;50.770;6.730;2022-12-07T10:30:25;7.60;99.90
13665;DHT22;6905;50.770;6.730;2022-12-07T10:33:48;7.60;99.90
